Aérodrome :
LOGIN :

S'inscrire | Disclaimer

   EN    FR    IT 

 










Légende :    VFR   VFR Marginal   IFR   IFR Intensif   IFR Très Intensif
Visi : 
Plafond : 
>= 8 km
>= 3000ft
5 à 8 km
1000 à 3000 ft
1500m à 5 km
500 à 1000 ft
800 à 1500m
200 à 500 ft
< 800m
< 200 ft
Symboles :   Orages  Brouillard  Fortes neiges  Fortes précipitations  Vent > 20 kt
SIGMETs :   Divers  Orages  Givrage  Turbulence  Onde Orograph.  Cendres Volcan.







- Altitude de l'aérodrome : 622 ft
- Code IATA : BRS
- Voir les cartes d'approche


EGGD - Bristol Int.

METARs EXPIRÉS :
  • 210250Z AUTO 28007KT 2900 BR OVC002 15/15 Q1020
  • 210520Z AUTO 25005KT 4100 BR BKN002 OVC010 15/15 Q1020
  • 210450Z AUTO 25005KT 3200 BR BKN002 OVC005 15/15 Q1020

TAF TAF EGGD
Valide du 21 à 06h jusqu'au 22 à 06h UTC


210458Z 2106/2206 26008KT 6000 BKN005
TEMPO 2106/2109 4000 BR BKN002
PROB30
TEMPO 2106/2109 0300 RADZ FG BKN000
BECMG 2109/2112 9999 SCT020
PROB30
TEMPO 2203/2206 8000 BKN003
ATIS : +44 1275 473 666
Pas de NOTAMs connus pour ce terrain.



MET'MAP, la Météo Aéronautique d'un coup d'oeil ! - Copyright ORBIFLY Décembre 2007 - Disclaimer

ORBIFLY MET'MAP TEAM :

Programmation & Développement : Alexandra Zaïnal
Conception & Développement : Baudouin d'Aumeries
Co-Programmation & Développement : Marc-Olivier Méhu
Soutien technique & logistique : Manuel Goepfert

Contact : metmap@orbifly.com




SOURCES & CREDITS :

   NOAA